Landers, California
Current Conditions -  °F | °C
As of 2:56 PM on Saturday 20 Dec 2014 (Local Time) from KNXP Reporting Station
Clear Clear  
Wind Chill: 13°   Ceiling: Unl
Heat Index: 13°   Visibility: 10mi
Dew Point:   Wind: 6mph
Humidity: 51%   Direction: 120°ESE
Pressure: 30.14"   Gusts: NA
Location:  34.27°N, 116.39°W
Report Text: KNXP 202256Z AUTO 12005KT 10SM CLR 13/03 A3014 RMK AO2 SLP194 T01330033 $
Loading
Personal Weather Stations






























Interactive Weather Map New forecast layout! Learn more

10-Day Weather Forecast

Advertisements
Track Severe Weather on mobile